sensor_id;sensor_type;location;lat;lon;timestamp;P1;durP1;ratioP1;P2;durP2;ratioP2
8861;SDS011;4799;50.996;4.754;2023-02-01T00:01:59;19.70;;;9.80;;
8861;SDS011;4799;50.996;4.754;2023-02-01T00:04:25;18.30;;;9.27;;
8861;SDS011;4799;50.996;4.754;2023-02-01T00:06:51;19.33;;;9.73;;
8861;SDS011;4799;50.996;4.754;2023-02-01T00:09:16;18.63;;;8.83;;
8861;SDS011;4799;50.996;4.754;2023-02-01T00:11:42;19.77;;;9.80;;
8861;SDS011;4799;50.996;4.754;2023-02-01T00:14:08;18.70;;;8.40;;
8861;SDS011;4799;50.996;4.754;2023-02-01T00:16:34;17.73;;;8.30;;
8861;SDS011;4799;50.996;4.754;2023-02-01T00:21:33;15.70;;;8.03;;
8861;SDS011;4799;50.996;4.754;2023-02-01T00:23:59;20.83;;;8.47;;
8861;SDS011;4799;50.996;4.754;2023-02-01T00:26:26;17.80;;;8.20;;
8861;SDS011;4799;50.996;4.754;2023-02-01T00:28:57;20.60;;;8.20;;
8861;SDS011;4799;50.996;4.754;2023-02-01T00:31:25;18.33;;;7.77;;
8861;SDS011;4799;50.996;4.754;2023-02-01T00:33:51;17.87;;;7.40;;
8861;SDS011;4799;50.996;4.754;2023-02-01T00:36:17;15.47;;;7.60;;
8861;SDS011;4799;50.996;4.754;2023-02-01T00:38:43;15.17;;;6.97;;
8861;SDS011;4799;50.996;4.754;2023-02-01T00:41:13;19.57;;;7.67;;
8861;SDS011;4799;50.996;4.754;2023-02-01T00:43:40;14.30;;;6.73;;
8861;SDS011;4799;50.996;4.754;2023-02-01T00:46:07;17.17;;;6.77;;
8861;SDS011;4799;50.996;4.754;2023-02-01T00:48:33;16.07;;;6.43;;
8861;SDS011;4799;50.996;4.754;2023-02-01T00:51:03;16.07;;;6.17;;
8861;SDS011;4799;50.996;4.754;2023-02-01T00:53:34;16.83;;;6.13;;
8861;SDS011;4799;50.996;4.754;2023-02-01T00:56:00;16.00;;;6.13;;
8861;SDS011;4799;50.996;4.754;2023-02-01T00:58:26;18.53;;;5.93;;
8861;SDS011;4799;50.996;4.754;2023-02-01T01:01:06;14.07;;;6.17;;
8861;SDS011;4799;50.996;4.754;2023-02-01T01:03:34;14.33;;;5.63;;
8861;SDS011;4799;50.996;4.754;2023-02-01T01:06:03;13.70;;;5.33;;
8861;SDS011;4799;50.996;4.754;2023-02-01T01:08:30;16.20;;;6.37;;
8861;SDS011;4799;50.996;4.754;2023-02-01T01:10:56;12.93;;;5.30;;
8861;SDS011;4799;50.996;4.754;2023-02-01T01:13:22;12.60;;;6.07;;
8861;SDS011;4799;50.996;4.754;2023-02-01T01:15:48;12.23;;;5.37;;
8861;SDS011;4799;50.996;4.754;2023-02-01T01:18:14;17.63;;;5.53;;
8861;SDS011;4799;50.996;4.754;2023-02-01T01:20:40;16.27;;;5.10;;
8861;SDS011;4799;50.996;4.754;2023-02-01T01:23:07;12.33;;;5.87;;
8861;SDS011;4799;50.996;4.754;2023-02-01T01:25:36;20.43;;;5.67;;
8861;SDS011;4799;50.996;4.754;2023-02-01T01:28:04;21.50;;;6.03;;
8861;SDS011;4799;50.996;4.754;2023-02-01T01:30:30;14.97;;;5.23;;
8861;SDS011;4799;50.996;4.754;2023-02-01T01:32:55;16.33;;;5.60;;
8861;SDS011;4799;50.996;4.754;2023-02-01T01:35:21;17.63;;;5.33;;
8861;SDS011;4799;50.996;4.754;2023-02-01T01:37:47;15.63;;;5.00;;
8861;SDS011;4799;50.996;4.754;2023-02-01T01:40:13;18.77;;;5.87;;
8861;SDS011;4799;50.996;4.754;2023-02-01T01:42:39;18.67;;;6.13;;
8861;SDS011;4799;50.996;4.754;2023-02-01T01:45:08;20.60;;;5.80;;
8861;SDS011;4799;50.996;4.754;2023-02-01T01:47:44;19.10;;;5.80;;
8861;SDS011;4799;50.996;4.754;2023-02-01T01:50:14;20.13;;;5.73;;
8861;SDS011;4799;50.996;4.754;2023-02-01T01:52:45;20.13;;;5.80;;
8861;SDS011;4799;50.996;4.754;2023-02-01T01:55:13;12.40;;;5.07;;
8861;SDS011;4799;50.996;4.754;2023-02-01T01:57:44;17.63;;;5.60;;
8861;SDS011;4799;50.996;4.754;2023-02-01T02:00:16;13.43;;;4.77;;
8861;SDS011;4799;50.996;4.754;2023-02-01T02:02:45;15.37;;;5.20;;
8861;SDS011;4799;50.996;4.754;2023-02-01T02:05:14;16.80;;;5.13;;
8861;SDS011;4799;50.996;4.754;2023-02-01T02:07:42;16.60;;;4.93;;
8861;SDS011;4799;50.996;4.754;2023-02-01T02:10:12;18.57;;;5.47;;
8861;SDS011;4799;50.996;4.754;2023-02-01T02:12:39;18.23;;;4.77;;
8861;SDS011;4799;50.996;4.754;2023-02-01T02:15:10;13.67;;;4.67;;
8861;SDS011;4799;50.996;4.754;2023-02-01T02:18:12;16.17;;;4.60;;
8861;SDS011;4799;50.996;4.754;2023-02-01T02:31:40;17.43;;;4.90;;
8861;SDS011;4799;50.996;4.754;2023-02-01T02:45:43;14.13;;;4.67;;
8861;SDS011;4799;50.996;4.754;2023-02-01T02:48:43;14.97;;;4.70;;
8861;SDS011;4799;50.996;4.754;2023-02-01T02:51:34;18.40;;;4.97;;
8861;SDS011;4799;50.996;4.754;2023-02-01T02:54:29;13.73;;;4.33;;
8861;SDS011;4799;50.996;4.754;2023-02-01T02:57:24;17.63;;;5.33;;
8861;SDS011;4799;50.996;4.754;2023-02-01T03:00:14;19.77;;;5.60;;
8861;SDS011;4799;50.996;4.754;2023-02-01T03:03:04;15.47;;;4.33;;
8861;SDS011;4799;50.996;4.754;2023-02-01T03:05:50;13.77;;;4.00;;
8861;SDS011;4799;50.996;4.754;2023-02-01T03:08:16;14.53;;;5.00;;
8861;SDS011;4799;50.996;4.754;2023-02-01T03:13:43;14.33;;;4.50;;
8861;SDS011;4799;50.996;4.754;2023-02-01T03:16:24;17.33;;;5.00;;
8861;SDS011;4799;50.996;4.754;2023-02-01T03:22:02;18.83;;;5.13;;
8861;SDS011;4799;50.996;4.754;2023-02-01T03:27:26;14.43;;;4.63;;
8861;SDS011;4799;50.996;4.754;2023-02-01T03:30:06;13.30;;;5.17;;
8861;SDS011;4799;50.996;4.754;2023-02-01T03:32:38;15.00;;;4.73;;
8861;SDS011;4799;50.996;4.754;2023-02-01T03:35:28;15.60;;;5.17;;
8861;SDS011;4799;50.996;4.754;2023-02-01T03:37:56;17.50;;;5.57;;
8861;SDS011;4799;50.996;4.754;2023-02-01T03:40:32;15.70;;;4.70;;
8861;SDS011;4799;50.996;4.754;2023-02-01T03:43:01;13.33;;;4.43;;
8861;SDS011;4799;50.996;4.754;2023-02-01T03:45:31;15.77;;;5.03;;
8861;SDS011;4799;50.996;4.754;2023-02-01T03:48:01;17.73;;;4.97;;
8861;SDS011;4799;50.996;4.754;2023-02-01T03:50:27;13.03;;;4.67;;
8861;SDS011;4799;50.996;4.754;2023-02-01T03:53:02;14.67;;;4.90;;
8861;SDS011;4799;50.996;4.754;2023-02-01T03:55:34;17.67;;;5.37;;
8861;SDS011;4799;50.996;4.754;2023-02-01T03:58:03;17.93;;;5.23;;
8861;SDS011;4799;50.996;4.754;2023-02-01T04:00:34;18.03;;;5.23;;
8861;SDS011;4799;50.996;4.754;2023-02-01T04:03:00;13.57;;;4.83;;
8861;SDS011;4799;50.996;4.754;2023-02-01T04:05:29;18.80;;;5.17;;
8861;SDS011;4799;50.996;4.754;2023-02-01T04:07:55;15.20;;;4.87;;
8861;SDS011;4799;50.996;4.754;2023-02-01T04:10:21;16.23;;;5.37;;
8861;SDS011;4799;50.996;4.754;2023-02-01T04:12:47;15.97;;;5.13;;
8861;SDS011;4799;50.996;4.754;2023-02-01T04:15:13;14.63;;;5.20;;
8861;SDS011;4799;50.996;4.754;2023-02-01T04:17:39;14.53;;;5.03;;
8861;SDS011;4799;50.996;4.754;2023-02-01T04:20:05;13.50;;;4.70;;
8861;SDS011;4799;50.996;4.754;2023-02-01T04:22:31;15.87;;;4.47;;
8861;SDS011;4799;50.996;4.754;2023-02-01T04:24:57;17.60;;;5.07;;
8861;SDS011;4799;50.996;4.754;2023-02-01T04:27:23;15.90;;;4.83;;
8861;SDS011;4799;50.996;4.754;2023-02-01T04:29:49;16.77;;;5.20;;
8861;SDS011;4799;50.996;4.754;2023-02-01T04:32:16;16.37;;;4.93;;
8861;SDS011;4799;50.996;4.754;2023-02-01T04:34:42;20.27;;;5.50;;
8861;SDS011;4799;50.996;4.754;2023-02-01T04:37:08;17.47;;;5.10;;
8861;SDS011;4799;50.996;4.754;2023-02-01T04:39:34;18.27;;;5.20;;
8861;SDS011;4799;50.996;4.754;2023-02-01T04:41:59;17.60;;;5.07;;
8861;SDS011;4799;50.996;4.754;2023-02-01T04:44:25;20.27;;;5.63;;
8861;SDS011;4799;50.996;4.754;2023-02-01T04:46:51;21.73;;;5.60;;
8861;SDS011;4799;50.996;4.754;2023-02-01T04:49:17;15.90;;;5.23;;
8861;SDS011;4799;50.996;4.754;2023-02-01T04:51:42;17.53;;;5.20;;
8861;SDS011;4799;50.996;4.754;2023-02-01T04:54:08;19.30;;;4.83;;
8861;SDS011;4799;50.996;4.754;2023-02-01T04:56:36;17.73;;;5.33;;
8861;SDS011;4799;50.996;4.754;2023-02-01T04:59:02;20.07;;;5.40;;
8861;SDS011;4799;50.996;4.754;2023-02-01T05:01:28;17.27;;;5.10;;
8861;SDS011;4799;50.996;4.754;2023-02-01T05:03:54;18.47;;;4.93;;
8861;SDS011;4799;50.996;4.754;2023-02-01T05:06:20;15.37;;;4.63;;
8861;SDS011;4799;50.996;4.754;2023-02-01T05:08:46;18.87;;;5.70;;
8861;SDS011;4799;50.996;4.754;2023-02-01T05:11:12;17.20;;;5.20;;
8861;SDS011;4799;50.996;4.754;2023-02-01T05:13:56;16.47;;;5.23;;
8861;SDS011;4799;50.996;4.754;2023-02-01T05:16:22;17.40;;;5.20;;
8861;SDS011;4799;50.996;4.754;2023-02-01T05:18:48;18.60;;;5.07;;
8861;SDS011;4799;50.996;4.754;2023-02-01T05:21:14;17.30;;;5.50;;
8861;SDS011;4799;50.996;4.754;2023-02-01T05:23:39;16.93;;;4.90;;
8861;SDS011;4799;50.996;4.754;2023-02-01T05:26:24;20.23;;;5.73;;
8861;SDS011;4799;50.996;4.754;2023-02-01T05:28:50;18.20;;;5.00;;
8861;SDS011;4799;50.996;4.754;2023-02-01T05:31:16;18.17;;;4.97;;
8861;SDS011;4799;50.996;4.754;2023-02-01T05:33:42;20.30;;;5.20;;
8861;SDS011;4799;50.996;4.754;2023-02-01T05:36:08;18.57;;;5.47;;
8861;SDS011;4799;50.996;4.754;2023-02-01T05:38:33;18.73;;;5.40;;
8861;SDS011;4799;50.996;4.754;2023-02-01T05:40:59;18.13;;;4.97;;
8861;SDS011;4799;50.996;4.754;2023-02-01T05:43:25;23.17;;;5.67;;
8861;SDS011;4799;50.996;4.754;2023-02-01T05:45:51;17.60;;;5.77;;
8861;SDS011;4799;50.996;4.754;2023-02-01T05:48:17;19.47;;;5.87;;
8861;SDS011;4799;50.996;4.754;2023-02-01T05:50:43;21.20;;;5.90;;
8861;SDS011;4799;50.996;4.754;2023-02-01T05:53:09;21.90;;;5.60;;
8861;SDS011;4799;50.996;4.754;2023-02-01T05:55:35;20.97;;;5.57;;
8861;SDS011;4799;50.996;4.754;2023-02-01T05:58:01;16.10;;;4.90;;
8861;SDS011;4799;50.996;4.754;2023-02-01T06:00:27;19.20;;;5.40;;
8861;SDS011;4799;50.996;4.754;2023-02-01T06:02:53;18.03;;;5.43;;
8861;SDS011;4799;50.996;4.754;2023-02-01T06:05:19;19.30;;;5.50;;
8861;SDS011;4799;50.996;4.754;2023-02-01T06:07:45;18.90;;;5.13;;
8861;SDS011;4799;50.996;4.754;2023-02-01T06:10:11;17.70;;;5.00;;
8861;SDS011;4799;50.996;4.754;2023-02-01T06:12:36;15.57;;;5.27;;
8861;SDS011;4799;50.996;4.754;2023-02-01T06:15:02;21.67;;;5.53;;
8861;SDS011;4799;50.996;4.754;2023-02-01T06:17:28;16.87;;;5.30;;
8861;SDS011;4799;50.996;4.754;2023-02-01T06:19:54;20.07;;;5.50;;
8861;SDS011;4799;50.996;4.754;2023-02-01T06:22:20;18.17;;;5.50;;
8861;SDS011;4799;50.996;4.754;2023-02-01T06:24:46;17.50;;;4.83;;
8861;SDS011;4799;50.996;4.754;2023-02-01T06:27:12;17.27;;;5.20;;
8861;SDS011;4799;50.996;4.754;2023-02-01T06:29:38;16.33;;;4.90;;
8861;SDS011;4799;50.996;4.754;2023-02-01T06:32:04;19.03;;;5.43;;
8861;SDS011;4799;50.996;4.754;2023-02-01T06:34:30;21.37;;;5.63;;
8861;SDS011;4799;50.996;4.754;2023-02-01T06:36:55;17.57;;;4.87;;
8861;SDS011;4799;50.996;4.754;2023-02-01T06:39:21;14.47;;;4.90;;
8861;SDS011;4799;50.996;4.754;2023-02-01T06:41:47;17.17;;;5.40;;
8861;SDS011;4799;50.996;4.754;2023-02-01T06:44:14;22.70;;;5.67;;
8861;SDS011;4799;50.996;4.754;2023-02-01T06:46:40;17.50;;;5.43;;
8861;SDS011;4799;50.996;4.754;2023-02-01T06:49:06;15.90;;;5.07;;
8861;SDS011;4799;50.996;4.754;2023-02-01T06:51:32;20.03;;;5.50;;
8861;SDS011;4799;50.996;4.754;2023-02-01T06:53:58;15.73;;;5.17;;
8861;SDS011;4799;50.996;4.754;2023-02-01T06:56:24;18.67;;;5.23;;
8861;SDS011;4799;50.996;4.754;2023-02-01T06:58:50;18.97;;;5.40;;
8861;SDS011;4799;50.996;4.754;2023-02-01T07:01:17;21.50;;;5.80;;
8861;SDS011;4799;50.996;4.754;2023-02-01T07:03:46;20.07;;;5.10;;
8861;SDS011;4799;50.996;4.754;2023-02-01T07:06:13;18.23;;;5.33;;
8861;SDS011;4799;50.996;4.754;2023-02-01T07:08:39;21.00;;;5.33;;
8861;SDS011;4799;50.996;4.754;2023-02-01T07:11:06;19.10;;;5.33;;
8861;SDS011;4799;50.996;4.754;2023-02-01T07:13:33;14.70;;;5.17;;
8861;SDS011;4799;50.996;4.754;2023-02-01T07:16:00;16.23;;;5.27;;
8861;SDS011;4799;50.996;4.754;2023-02-01T07:18:27;15.57;;;4.63;;
8861;SDS011;4799;50.996;4.754;2023-02-01T07:20:54;18.60;;;5.60;;
8861;SDS011;4799;50.996;4.754;2023-02-01T07:23:20;20.23;;;5.47;;
8861;SDS011;4799;50.996;4.754;2023-02-01T07:25:46;19.90;;;4.93;;
8861;SDS011;4799;50.996;4.754;2023-02-01T07:28:12;15.57;;;5.07;;
8861;SDS011;4799;50.996;4.754;2023-02-01T07:30:38;16.33;;;5.43;;
8861;SDS011;4799;50.996;4.754;2023-02-01T07:33:04;17.53;;;5.03;;
8861;SDS011;4799;50.996;4.754;2023-02-01T07:35:29;16.37;;;5.00;;
8861;SDS011;4799;50.996;4.754;2023-02-01T07:37:56;19.77;;;5.53;;
8861;SDS011;4799;50.996;4.754;2023-02-01T07:40:22;18.40;;;5.20;;
8861;SDS011;4799;50.996;4.754;2023-02-01T07:42:56;17.03;;;4.73;;
8861;SDS011;4799;50.996;4.754;2023-02-01T07:45:22;18.97;;;5.57;;
8861;SDS011;4799;50.996;4.754;2023-02-01T07:47:48;16.40;;;4.63;;
8861;SDS011;4799;50.996;4.754;2023-02-01T07:50:16;17.63;;;4.83;;
8861;SDS011;4799;50.996;4.754;2023-02-01T07:52:42;16.40;;;4.83;;
8861;SDS011;4799;50.996;4.754;2023-02-01T07:55:08;19.43;;;5.03;;
8861;SDS011;4799;50.996;4.754;2023-02-01T07:57:34;14.60;;;5.13;;
8861;SDS011;4799;50.996;4.754;2023-02-01T08:00:00;18.00;;;4.80;;
8861;SDS011;4799;50.996;4.754;2023-02-01T08:02:44;20.33;;;4.90;;
8861;SDS011;4799;50.996;4.754;2023-02-01T08:05:09;18.37;;;4.93;;
8861;SDS011;4799;50.996;4.754;2023-02-01T08:07:35;13.13;;;4.77;;
8861;SDS011;4799;50.996;4.754;2023-02-01T08:10:01;16.67;;;5.37;;
8861;SDS011;4799;50.996;4.754;2023-02-01T08:12:27;16.50;;;5.27;;
8861;SDS011;4799;50.996;4.754;2023-02-01T08:14:53;16.20;;;5.03;;
8861;SDS011;4799;50.996;4.754;2023-02-01T08:17:19;15.10;;;4.80;;
8861;SDS011;4799;50.996;4.754;2023-02-01T08:19:45;16.50;;;5.00;;
8861;SDS011;4799;50.996;4.754;2023-02-01T08:22:10;15.33;;;4.53;;
8861;SDS011;4799;50.996;4.754;2023-02-01T08:24:36;14.47;;;4.83;;
8861;SDS011;4799;50.996;4.754;2023-02-01T08:27:05;17.80;;;5.23;;
8861;SDS011;4799;50.996;4.754;2023-02-01T08:29:31;13.30;;;4.90;;
8861;SDS011;4799;50.996;4.754;2023-02-01T08:31:57;19.13;;;5.17;;
8861;SDS011;4799;50.996;4.754;2023-02-01T08:34:23;21.37;;;5.03;;
8861;SDS011;4799;50.996;4.754;2023-02-01T08:36:49;17.30;;;4.83;;
8861;SDS011;4799;50.996;4.754;2023-02-01T08:39:16;16.07;;;4.80;;
8861;SDS011;4799;50.996;4.754;2023-02-01T08:41:42;18.77;;;4.80;;
8861;SDS011;4799;50.996;4.754;2023-02-01T08:44:28;19.93;;;5.13;;
8861;SDS011;4799;50.996;4.754;2023-02-01T08:46:53;15.00;;;5.17;;
8861;SDS011;4799;50.996;4.754;2023-02-01T08:49:19;17.20;;;5.67;;
8861;SDS011;4799;50.996;4.754;2023-02-01T08:51:45;14.47;;;4.60;;
8861;SDS011;4799;50.996;4.754;2023-02-01T08:54:11;15.80;;;4.80;;
8861;SDS011;4799;50.996;4.754;2023-02-01T08:56:36;17.13;;;5.10;;
8861;SDS011;4799;50.996;4.754;2023-02-01T08:59:02;17.87;;;4.90;;
8861;SDS011;4799;50.996;4.754;2023-02-01T09:01:28;16.20;;;5.07;;
8861;SDS011;4799;50.996;4.754;2023-02-01T09:03:53;16.80;;;4.90;;
8861;SDS011;4799;50.996;4.754;2023-02-01T09:06:19;19.37;;;5.10;;
8861;SDS011;4799;50.996;4.754;2023-02-01T09:08:45;17.03;;;4.53;;
8861;SDS011;4799;50.996;4.754;2023-02-01T09:11:12;16.23;;;4.93;;
8861;SDS011;4799;50.996;4.754;2023-02-01T09:13:39;17.30;;;5.10;;
8861;SDS011;4799;50.996;4.754;2023-02-01T09:16:05;16.93;;;5.03;;
8861;SDS011;4799;50.996;4.754;2023-02-01T09:18:31;19.17;;;5.30;;
8861;SDS011;4799;50.996;4.754;2023-02-01T09:20:57;15.70;;;4.57;;
8861;SDS011;4799;50.996;4.754;2023-02-01T09:23:23;14.07;;;4.70;;
8861;SDS011;4799;50.996;4.754;2023-02-01T09:25:50;15.23;;;5.07;;
8861;SDS011;4799;50.996;4.754;2023-02-01T09:28:17;14.20;;;4.87;;
8861;SDS011;4799;50.996;4.754;2023-02-01T09:30:43;17.93;;;5.40;;
8861;SDS011;4799;50.996;4.754;2023-02-01T09:33:09;17.20;;;4.67;;
8861;SDS011;4799;50.996;4.754;2023-02-01T09:35:35;20.83;;;5.37;;
8861;SDS011;4799;50.996;4.754;2023-02-01T09:38:01;16.43;;;4.90;;
8861;SDS011;4799;50.996;4.754;2023-02-01T09:40:26;18.47;;;5.00;;
8861;SDS011;4799;50.996;4.754;2023-02-01T09:45:57;17.17;;;5.77;;
8861;SDS011;4799;50.996;4.754;2023-02-01T09:48:34;15.93;;;4.57;;
8861;SDS011;4799;50.996;4.754;2023-02-01T09:51:06;16.93;;;4.93;;
8861;SDS011;4799;50.996;4.754;2023-02-01T09:53:47;17.40;;;4.90;;
8861;SDS011;4799;50.996;4.754;2023-02-01T09:56:27;19.03;;;4.63;;
8861;SDS011;4799;50.996;4.754;2023-02-01T10:04:43;18.13;;;4.77;;
8861;SDS011;4799;50.996;4.754;2023-02-01T10:07:13;16.93;;;4.70;;
8861;SDS011;4799;50.996;4.754;2023-02-01T10:15:44;16.00;;;4.30;;
8861;SDS011;4799;50.996;4.754;2023-02-01T10:18:30;10.47;;;4.40;;
8861;SDS011;4799;50.996;4.754;2023-02-01T10:24:05;15.00;;;4.60;;
8861;SDS011;4799;50.996;4.754;2023-02-01T10:26:37;18.13;;;4.80;;
8861;SDS011;4799;50.996;4.754;2023-02-01T10:29:10;13.67;;;4.27;;
8861;SDS011;4799;50.996;4.754;2023-02-01T10:31:42;13.57;;;4.80;;
8861;SDS011;4799;50.996;4.754;2023-02-01T10:34:18;18.53;;;5.13;;
8861;SDS011;4799;50.996;4.754;2023-02-01T10:39:29;15.20;;;4.47;;
8861;SDS011;4799;50.996;4.754;2023-02-01T10:41:55;13.37;;;4.10;;
8861;SDS011;4799;50.996;4.754;2023-02-01T10:44:24;12.60;;;4.53;;
8861;SDS011;4799;50.996;4.754;2023-02-01T10:46:52;15.13;;;4.87;;
8861;SDS011;4799;50.996;4.754;2023-02-01T10:49:36;14.90;;;4.30;;
8861;SDS011;4799;50.996;4.754;2023-02-01T10:52:15;19.27;;;5.03;;
8861;SDS011;4799;50.996;4.754;2023-02-01T10:54:44;13.37;;;4.17;;
8861;SDS011;4799;50.996;4.754;2023-02-01T10:57:11;14.53;;;4.73;;
8861;SDS011;4799;50.996;4.754;2023-02-01T10:59:53;15.60;;;4.65;;
8861;SDS011;4799;50.996;4.754;2023-02-01T11:02:25;15.63;;;3.80;;
8861;SDS011;4799;50.996;4.754;2023-02-01T11:05:14;12.43;;;3.77;;
8861;SDS011;4799;50.996;4.754;2023-02-01T11:07:46;16.83;;;4.03;;
8861;SDS011;4799;50.996;4.754;2023-02-01T11:13:03;10.20;;;4.13;;
8861;SDS011;4799;50.996;4.754;2023-02-01T11:15:29;13.80;;;3.83;;
8861;SDS011;4799;50.996;4.754;2023-02-01T11:17:55;16.50;;;3.60;;
8861;SDS011;4799;50.996;4.754;2023-02-01T11:20:39;11.60;;;3.70;;
8861;SDS011;4799;50.996;4.754;2023-02-01T11:23:14;11.53;;;3.40;;
8861;SDS011;4799;50.996;4.754;2023-02-01T11:25:52;13.23;;;4.27;;
8861;SDS011;4799;50.996;4.754;2023-02-01T11:28:26;11.17;;;3.97;;
8861;SDS011;4799;50.996;4.754;2023-02-01T11:31:02;9.50;;;3.37;;
8861;SDS011;4799;50.996;4.754;2023-02-01T11:33:30;11.00;;;3.37;;
8861;SDS011;4799;50.996;4.754;2023-02-01T11:36:01;7.90;;;2.93;;
8861;SDS011;4799;50.996;4.754;2023-02-01T11:39:26;11.17;;;3.50;;
8861;SDS011;4799;50.996;4.754;2023-02-01T11:41:41;12.13;;;3.27;;
8861;SDS011;4799;50.996;4.754;2023-02-01T11:44:42;10.60;;;3.30;;
8861;SDS011;4799;50.996;4.754;2023-02-01T11:49:46;13.53;;;3.80;;
8861;SDS011;4799;50.996;4.754;2023-02-01T11:52:18;11.20;;;3.40;;
8861;SDS011;4799;50.996;4.754;2023-02-01T11:58:15;10.87;;;3.20;;
8861;SDS011;4799;50.996;4.754;2023-02-01T12:03:46;13.47;;;3.00;;
8861;SDS011;4799;50.996;4.754;2023-02-01T12:06:22;9.70;;;3.23;;
8861;SDS011;4799;50.996;4.754;2023-02-01T12:09:06;11.47;;;3.43;;
8861;SDS011;4799;50.996;4.754;2023-02-01T12:39:39;11.33;;;3.13;;
8861;SDS011;4799;50.996;4.754;2023-02-01T12:42:27;12.23;;;3.33;;
8861;SDS011;4799;50.996;4.754;2023-02-01T12:45:02;9.33;;;2.97;;
8861;SDS011;4799;50.996;4.754;2023-02-01T12:53:23;11.57;;;3.27;;
8861;SDS011;4799;50.996;4.754;2023-02-01T12:56:07;11.63;;;3.23;;
8861;SDS011;4799;50.996;4.754;2023-02-01T12:58:41;11.57;;;3.10;;
8861;SDS011;4799;50.996;4.754;2023-02-01T13:01:19;7.93;;;2.80;;
8861;SDS011;4799;50.996;4.754;2023-02-01T13:06:51;6.77;;;2.43;;
8861;SDS011;4799;50.996;4.754;2023-02-01T13:09:36;9.47;;;3.00;;
8861;SDS011;4799;50.996;4.754;2023-02-01T13:12:12;9.17;;;2.73;;
8861;SDS011;4799;50.996;4.754;2023-02-01T13:17:24;8.93;;;2.60;;
8861;SDS011;4799;50.996;4.754;2023-02-01T13:22:54;9.97;;;3.00;;
8861;SDS011;4799;50.996;4.754;2023-02-01T13:28:04;10.83;;;3.00;;
8861;SDS011;4799;50.996;4.754;2023-02-01T13:36:15;9.77;;;3.10;;
8861;SDS011;4799;50.996;4.754;2023-02-01T13:41:29;12.33;;;3.13;;
8861;SDS011;4799;50.996;4.754;2023-02-01T13:44:15;8.53;;;3.00;;
8861;SDS011;4799;50.996;4.754;2023-02-01T13:46:51;9.63;;;2.87;;
8861;SDS011;4799;50.996;4.754;2023-02-01T13:49:31;9.27;;;2.70;;
8861;SDS011;4799;50.996;4.754;2023-02-01T13:52:03;9.77;;;3.60;;
8861;SDS011;4799;50.996;4.754;2023-02-01T13:54:34;9.60;;;2.50;;
8861;SDS011;4799;50.996;4.754;2023-02-01T13:57:03;11.07;;;3.07;;
8861;SDS011;4799;50.996;4.754;2023-02-01T14:05:03;7.53;;;2.60;;
8861;SDS011;4799;50.996;4.754;2023-02-01T14:07:32;12.30;;;3.00;;
8861;SDS011;4799;50.996;4.754;2023-02-01T14:09:58;12.00;;;3.10;;
8861;SDS011;4799;50.996;4.754;2023-02-01T14:13:03;10.70;;;3.00;;
8861;SDS011;4799;50.996;4.754;2023-02-01T14:15:30;11.03;;;3.00;;
8861;SDS011;4799;50.996;4.754;2023-02-01T14:17:56;11.30;;;2.83;;
8861;SDS011;4799;50.996;4.754;2023-02-01T14:20:41;11.80;;;3.23;;
8861;SDS011;4799;50.996;4.754;2023-02-01T14:23:11;10.53;;;2.60;;
8861;SDS011;4799;50.996;4.754;2023-02-01T14:25:40;13.83;;;3.07;;
8861;SDS011;4799;50.996;4.754;2023-02-01T14:28:28;8.60;;;2.93;;
8861;SDS011;4799;50.996;4.754;2023-02-01T14:30:54;9.57;;;2.80;;
8861;SDS011;4799;50.996;4.754;2023-02-01T14:33:23;9.63;;;2.97;;
8861;SDS011;4799;50.996;4.754;2023-02-01T14:38:32;8.40;;;2.60;;
8861;SDS011;4799;50.996;4.754;2023-02-01T14:49:39;12.97;;;3.17;;
8861;SDS011;4799;50.996;4.754;2023-02-01T14:52:14;11.77;;;3.50;;
8861;SDS011;4799;50.996;4.754;2023-02-01T14:54:45;9.60;;;2.90;;
8861;SDS011;4799;50.996;4.754;2023-02-01T14:57:18;12.20;;;2.90;;
8861;SDS011;4799;50.996;4.754;2023-02-01T14:59:46;7.77;;;3.10;;
8861;SDS011;4799;50.996;4.754;2023-02-01T15:02:21;10.97;;;3.20;;
8861;SDS011;4799;50.996;4.754;2023-02-01T15:04:55;10.10;;;2.87;;
8861;SDS011;4799;50.996;4.754;2023-02-01T15:07:23;9.83;;;2.97;;
8861;SDS011;4799;50.996;4.754;2023-02-01T15:09:51;10.50;;;3.60;;
8861;SDS011;4799;50.996;4.754;2023-02-01T15:12:24;10.67;;;3.17;;
8861;SDS011;4799;50.996;4.754;2023-02-01T15:15:15;13.33;;;3.93;;
8861;SDS011;4799;50.996;4.754;2023-02-01T15:17:49;8.90;;;3.07;;
8861;SDS011;4799;50.996;4.754;2023-02-01T15:20:26;12.73;;;3.13;;
8861;SDS011;4799;50.996;4.754;2023-02-01T15:22:54;11.70;;;3.17;;
8861;SDS011;4799;50.996;4.754;2023-02-01T15:25:32;11.43;;;2.77;;
8861;SDS011;4799;50.996;4.754;2023-02-01T15:28:03;10.97;;;3.30;;
8861;SDS011;4799;50.996;4.754;2023-02-01T15:30:31;12.73;;;3.67;;
8861;SDS011;4799;50.996;4.754;2023-02-01T15:33:16;11.37;;;3.67;;
8861;SDS011;4799;50.996;4.754;2023-02-01T15:35:44;12.27;;;3.50;;
8861;SDS011;4799;50.996;4.754;2023-02-01T15:38:34;12.50;;;3.93;;
8861;SDS011;4799;50.996;4.754;2023-02-01T15:46:14;11.83;;;3.40;;
8861;SDS011;4799;50.996;4.754;2023-02-01T15:48:51;10.30;;;3.70;;
8861;SDS011;4799;50.996;4.754;2023-02-01T15:51:19;12.57;;;3.80;;
8861;SDS011;4799;50.996;4.754;2023-02-01T15:53:51;13.33;;;3.80;;
8861;SDS011;4799;50.996;4.754;2023-02-01T15:56:22;11.07;;;3.27;;
8861;SDS011;4799;50.996;4.754;2023-02-01T15:58:51;12.90;;;4.13;;
8861;SDS011;4799;50.996;4.754;2023-02-01T16:01:21;11.33;;;3.60;;
8861;SDS011;4799;50.996;4.754;2023-02-01T16:03:47;12.47;;;3.47;;
8861;SDS011;4799;50.996;4.754;2023-02-01T16:08:50;11.40;;;3.40;;
8861;SDS011;4799;50.996;4.754;2023-02-01T16:11:39;15.47;;;3.43;;
8861;SDS011;4799;50.996;4.754;2023-02-01T16:14:20;18.40;;;3.63;;
8861;SDS011;4799;50.996;4.754;2023-02-01T16:16:46;13.13;;;3.70;;
8861;SDS011;4799;50.996;4.754;2023-02-01T16:19:12;12.63;;;3.80;;
8861;SDS011;4799;50.996;4.754;2023-02-01T16:21:38;11.70;;;4.03;;
8861;SDS011;4799;50.996;4.754;2023-02-01T16:24:04;13.13;;;4.10;;
8861;SDS011;4799;50.996;4.754;2023-02-01T16:26:30;12.00;;;3.47;;
8861;SDS011;4799;50.996;4.754;2023-02-01T16:28:58;13.77;;;3.97;;
8861;SDS011;4799;50.996;4.754;2023-02-01T16:31:28;13.53;;;4.27;;
8861;SDS011;4799;50.996;4.754;2023-02-01T16:33:56;11.37;;;3.50;;
8861;SDS011;4799;50.996;4.754;2023-02-01T16:36:22;12.53;;;4.23;;
8861;SDS011;4799;50.996;4.754;2023-02-01T16:38:49;15.77;;;4.17;;
8861;SDS011;4799;50.996;4.754;2023-02-01T16:41:18;13.50;;;4.10;;
8861;SDS011;4799;50.996;4.754;2023-02-01T16:43:48;12.23;;;3.93;;
8861;SDS011;4799;50.996;4.754;2023-02-01T16:46:16;14.57;;;4.07;;
8861;SDS011;4799;50.996;4.754;2023-02-01T16:48:55;11.40;;;3.63;;
8861;SDS011;4799;50.996;4.754;2023-02-01T16:51:23;8.43;;;3.30;;
8861;SDS011;4799;50.996;4.754;2023-02-01T16:53:53;12.10;;;3.90;;
8861;SDS011;4799;50.996;4.754;2023-02-01T16:58:47;13.87;;;4.00;;
8861;SDS011;4799;50.996;4.754;2023-02-01T17:01:13;12.83;;;3.67;;
8861;SDS011;4799;50.996;4.754;2023-02-01T17:03:40;14.07;;;3.93;;
8861;SDS011;4799;50.996;4.754;2023-02-01T17:06:09;11.07;;;3.90;;
8861;SDS011;4799;50.996;4.754;2023-02-01T17:08:41;11.20;;;4.17;;
8861;SDS011;4799;50.996;4.754;2023-02-01T17:11:09;11.80;;;3.90;;
8861;SDS011;4799;50.996;4.754;2023-02-01T17:13:36;13.20;;;4.00;;
8861;SDS011;4799;50.996;4.754;2023-02-01T17:16:04;13.43;;;4.47;;
8861;SDS011;4799;50.996;4.754;2023-02-01T17:18:41;13.00;;;4.27;;
8861;SDS011;4799;50.996;4.754;2023-02-01T17:21:08;13.70;;;4.10;;
8861;SDS011;4799;50.996;4.754;2023-02-01T17:23:35;15.80;;;4.60;;
8861;SDS011;4799;50.996;4.754;2023-02-01T17:26:01;16.37;;;4.63;;
8861;SDS011;4799;50.996;4.754;2023-02-01T17:28:28;14.23;;;4.03;;
8861;SDS011;4799;50.996;4.754;2023-02-01T17:30:54;12.87;;;4.33;;
8861;SDS011;4799;50.996;4.754;2023-02-01T17:35:53;12.73;;;4.27;;
8861;SDS011;4799;50.996;4.754;2023-02-01T17:38:20;14.67;;;4.30;;
8861;SDS011;4799;50.996;4.754;2023-02-01T17:40:46;13.20;;;4.43;;
8861;SDS011;4799;50.996;4.754;2023-02-01T17:43:12;12.83;;;4.30;;
8861;SDS011;4799;50.996;4.754;2023-02-01T17:45:48;15.40;;;4.30;;
8861;SDS011;4799;50.996;4.754;2023-02-01T17:48:24;12.27;;;4.13;;
8861;SDS011;4799;50.996;4.754;2023-02-01T17:50:50;16.33;;;4.80;;